Dundee, United Kingdom

12:17 AM GMT on December 11, 2016 (GMT +0000)
IDUNDEE2 | | Change Station

Elev 59 ft 56.46 °N, 2.98 °W | Updated 53 seconds ago

Clear
Clear
44.1 °F
Feels Like 37 °F
N
14.0
Wind Variable Wind from NE

Today
High -- | Low -- °F
--% Chance of Precip.
Yesterday
High -- | Low -- °F
Precip. -- in
Pressure 29.92 in
Visibility -9999.0 miles
Clouds
Windchill 37 °F
Dew Point 42 °F
Humidity 92%
Rainfall 0.00 in
Snow Depth Not available.
8:36 AM 3:34 PM
Waxing Gibbous, 87% visible
METAR EGQL 102350Z 25009KT CAVOK 05/04 Q1013 BLU
Pressure 29.92 in
Visibility -9999.0 miles
Clouds
Windchill 37 °F
Dew Point 42 °F
Humidity 92%
Rainfall 0.00 in
Snow Depth Not available.
8:36 AM 3:34 PM
Waxing Gibbous, 87% visible
METAR EGQL 102350Z 25009KT CAVOK 05/04 Q1013 BLU

10-Day Weather Forecast

×

Almanac

Astronomy

Dec. 11, 2016 Rise Set
Actual Time
Civil Twilight
Nautical Twilight
Astronomical Twilight
Moon
Length of Visible Light
Length of Day
Tomorrow will be .
, % of the Moon is Illuminated

Today's Extremes

Country Highs Country Lows

Community

WunderPhotos

Upload Photos

1,956,682 photos uploaded!

WunderBlog® & News

Nearby

Air Quality

  Air Quality AQ Index Pollutant
Not available.

Snow Depth

Station Depth Elevation

Earthquake Activity

City Distance Mag. Time & Date
Minimum magnitude displayed is 2.5.

Coastal Water Temperatures

Place Temperature

Stations

Nearby Weather Stations

Station Location Temp. Windchill Dew Point Humidity Wind Precip. Elev Updated Type